Liverpool Bay, Canada
Current Conditions -  °F | °C
As of 2:00 PM on Friday 24 Oct 2014 (Local Time) from CYUB Reporting Station
Light Snow Light Snow  
Wind Chill:   Ceiling: 2000
Heat Index: 16°   Visibility: 6mi
Dew Point: 10°   Wind: 8mph
Humidity: 79%   Direction: 210°SSW
Pressure: 29.81"   Gusts: NA
Location:  69.6°N, 130.9°W
Report Text: CYUB 242000Z 21007KT 6SM -SN FEW005 OVC020 M09/M12 A2981 RMKSF1SC8 SLP097
Loading
Personal Weather Stations






























Interactive Weather Map
Tropical Storm Tracking
New forecast layout! Learn more

10-Day Weather Forecast

Advertisements
Track Severe Weather on mobile